sensor_id;sensor_type;location;lat;lon;timestamp;P1;durP1;ratioP1;P2;durP2;ratioP2
16033;SDS011;8121;51.418;6.998;2024-02-26T00:04:25;2.30;;;1.13;;
16033;SDS011;8121;51.418;6.998;2024-02-26T00:09:26;1.90;;;1.60;;
16033;SDS011;8121;51.418;6.998;2024-02-26T00:14:28;1.30;;;1.20;;
16033;SDS011;8121;51.418;6.998;2024-02-26T00:19:31;1.20;;;1.10;;
16033;SDS011;8121;51.418;6.998;2024-02-26T00:24:33;1.83;;;1.23;;
16033;SDS011;8121;51.418;6.998;2024-02-26T00:29:34;2.03;;;1.37;;
16033;SDS011;8121;51.418;6.998;2024-02-26T00:34:37;3.83;;;1.20;;
16033;SDS011;8121;51.418;6.998;2024-02-26T00:39:39;1.63;;;1.40;;
16033;SDS011;8121;51.418;6.998;2024-02-26T00:44:40;1.40;;;1.10;;
16033;SDS011;8121;51.418;6.998;2024-02-26T00:49:43;1.80;;;1.30;;
16033;SDS011;8121;51.418;6.998;2024-02-26T00:54:45;2.70;;;0.97;;
16033;SDS011;8121;51.418;6.998;2024-02-26T00:59:46;2.20;;;1.30;;
16033;SDS011;8121;51.418;6.998;2024-02-26T01:04:49;1.40;;;1.30;;
16033;SDS011;8121;51.418;6.998;2024-02-26T01:09:51;1.60;;;0.93;;
16033;SDS011;8121;51.418;6.998;2024-02-26T01:14:53;1.40;;;1.10;;
16033;SDS011;8121;51.418;6.998;2024-02-26T01:19:55;0.73;;;0.70;;
16033;SDS011;8121;51.418;6.998;2024-02-26T01:24:57;0.77;;;0.77;;
16033;SDS011;8121;51.418;6.998;2024-02-26T01:29:59;0.80;;;0.80;;
16033;SDS011;8121;51.418;6.998;2024-02-26T01:35:01;0.80;;;0.80;;
16033;SDS011;8121;51.418;6.998;2024-02-26T01:40:05;1.53;;;0.90;;
16033;SDS011;8121;51.418;6.998;2024-02-26T01:45:09;3.20;;;1.00;;
16033;SDS011;8121;51.418;6.998;2024-02-26T01:50:22;0.87;;;0.80;;
16033;SDS011;8121;51.418;6.998;2024-02-26T01:55:24;3.53;;;1.20;;
16033;SDS011;8121;51.418;6.998;2024-02-26T02:00:27;0.70;;;0.70;;
16033;SDS011;8121;51.418;6.998;2024-02-26T02:05:30;1.47;;;1.10;;
16033;SDS011;8121;51.418;6.998;2024-02-26T02:10:32;2.33;;;1.13;;
16033;SDS011;8121;51.418;6.998;2024-02-26T02:15:34;0.97;;;0.97;;
16033;SDS011;8121;51.418;6.998;2024-02-26T02:20:37;3.83;;;1.20;;
16033;SDS011;8121;51.418;6.998;2024-02-26T02:25:38;3.20;;;0.97;;
16033;SDS011;8121;51.418;6.998;2024-02-26T02:30:40;0.80;;;0.80;;
16033;SDS011;8121;51.418;6.998;2024-02-26T02:35:43;1.00;;;1.00;;
16033;SDS011;8121;51.418;6.998;2024-02-26T02:40:45;1.33;;;1.23;;
16033;SDS011;8121;51.418;6.998;2024-02-26T02:45:47;1.10;;;1.00;;
16033;SDS011;8121;51.418;6.998;2024-02-26T02:50:50;1.07;;;1.00;;
16033;SDS011;8121;51.418;6.998;2024-02-26T02:55:51;1.87;;;1.40;;
16033;SDS011;8121;51.418;6.998;2024-02-26T03:00:53;0.83;;;0.73;;
16033;SDS011;8121;51.418;6.998;2024-02-26T03:05:56;1.13;;;1.10;;
16033;SDS011;8121;51.418;6.998;2024-02-26T03:10:58;1.20;;;1.10;;
16033;SDS011;8121;51.418;6.998;2024-02-26T03:16:03;1.23;;;1.07;;
16033;SDS011;8121;51.418;6.998;2024-02-26T03:21:07;1.20;;;1.10;;
16033;SDS011;8121;51.418;6.998;2024-02-26T03:26:08;1.20;;;1.20;;
16033;SDS011;8121;51.418;6.998;2024-02-26T03:31:13;1.67;;;1.57;;
16033;SDS011;8121;51.418;6.998;2024-02-26T03:36:16;1.80;;;1.47;;
16033;SDS011;8121;51.418;6.998;2024-02-26T03:41:18;2.47;;;1.70;;
16033;SDS011;8121;51.418;6.998;2024-02-26T03:46:19;1.87;;;1.77;;
16033;SDS011;8121;51.418;6.998;2024-02-26T03:51:22;1.13;;;1.10;;
16033;SDS011;8121;51.418;6.998;2024-02-26T03:56:23;1.50;;;1.33;;
16033;SDS011;8121;51.418;6.998;2024-02-26T04:01:25;1.60;;;1.40;;
16033;SDS011;8121;51.418;6.998;2024-02-26T04:06:28;1.27;;;1.10;;
16033;SDS011;8121;51.418;6.998;2024-02-26T04:11:29;2.80;;;1.20;;
16033;SDS011;8121;51.418;6.998;2024-02-26T04:16:31;1.93;;;1.83;;
16033;SDS011;8121;51.418;6.998;2024-02-26T04:21:34;1.50;;;1.20;;
16033;SDS011;8121;51.418;6.998;2024-02-26T04:26:36;1.73;;;1.40;;
16033;SDS011;8121;51.418;6.998;2024-02-26T04:31:38;5.60;;;1.73;;
16033;SDS011;8121;51.418;6.998;2024-02-26T04:36:41;3.47;;;1.60;;
16033;SDS011;8121;51.418;6.998;2024-02-26T04:41:42;1.10;;;1.10;;
16033;SDS011;8121;51.418;6.998;2024-02-26T04:46:44;1.63;;;1.53;;
16033;SDS011;8121;51.418;6.998;2024-02-26T04:51:47;4.40;;;1.83;;
16033;SDS011;8121;51.418;6.998;2024-02-26T04:56:49;1.60;;;1.50;;
16033;SDS011;8121;51.418;6.998;2024-02-26T05:01:50;2.03;;;1.33;;
16033;SDS011;8121;51.418;6.998;2024-02-26T05:06:54;3.10;;;1.40;;
16033;SDS011;8121;51.418;6.998;2024-02-26T05:11:56;2.43;;;2.10;;
16033;SDS011;8121;51.418;6.998;2024-02-26T05:16:58;2.40;;;1.70;;
16033;SDS011;8121;51.418;6.998;2024-02-26T05:22:01;4.03;;;1.87;;
16033;SDS011;8121;51.418;6.998;2024-02-26T05:27:02;3.13;;;1.60;;
16033;SDS011;8121;51.418;6.998;2024-02-26T05:32:05;1.60;;;1.50;;
16033;SDS011;8121;51.418;6.998;2024-02-26T05:37:08;2.50;;;1.80;;
16033;SDS011;8121;51.418;6.998;2024-02-26T05:42:10;1.87;;;1.77;;
16033;SDS011;8121;51.418;6.998;2024-02-26T05:47:11;1.60;;;1.50;;
16033;SDS011;8121;51.418;6.998;2024-02-26T05:52:15;3.00;;;1.63;;
16033;SDS011;8121;51.418;6.998;2024-02-26T05:57:16;7.60;;;1.67;;
16033;SDS011;8121;51.418;6.998;2024-02-26T06:02:18;1.77;;;1.43;;
16033;SDS011;8121;51.418;6.998;2024-02-26T06:07:21;2.73;;;1.33;;
16033;SDS011;8121;51.418;6.998;2024-02-26T06:12:23;1.33;;;1.23;;
16033;SDS011;8121;51.418;6.998;2024-02-26T06:17:24;2.97;;;1.70;;
16033;SDS011;8121;51.418;6.998;2024-02-26T06:22:27;2.07;;;1.87;;
16033;SDS011;8121;51.418;6.998;2024-02-26T06:27:28;1.40;;;1.30;;
16033;SDS011;8121;51.418;6.998;2024-02-26T06:32:30;1.40;;;1.30;;
16033;SDS011;8121;51.418;6.998;2024-02-26T06:37:33;3.07;;;1.80;;
16033;SDS011;8121;51.418;6.998;2024-02-26T06:42:34;1.70;;;1.60;;
16033;SDS011;8121;51.418;6.998;2024-02-26T06:47:36;1.57;;;1.47;;
16033;SDS011;8121;51.418;6.998;2024-02-26T06:52:39;1.50;;;1.40;;
16033;SDS011;8121;51.418;6.998;2024-02-26T06:57:40;1.70;;;1.60;;
16033;SDS011;8121;51.418;6.998;2024-02-26T07:02:42;1.53;;;1.43;;
16033;SDS011;8121;51.418;6.998;2024-02-26T07:07:45;1.90;;;1.57;;
16033;SDS011;8121;51.418;6.998;2024-02-26T07:12:47;4.30;;;1.63;;
16033;SDS011;8121;51.418;6.998;2024-02-26T07:17:48;1.90;;;1.80;;
16033;SDS011;8121;51.418;6.998;2024-02-26T07:22:51;2.60;;;1.70;;
16033;SDS011;8121;51.418;6.998;2024-02-26T07:27:53;3.37;;;2.17;;
16033;SDS011;8121;51.418;6.998;2024-02-26T07:32:54;2.77;;;2.10;;
16033;SDS011;8121;51.418;6.998;2024-02-26T07:37:58;1.80;;;1.70;;
16033;SDS011;8121;51.418;6.998;2024-02-26T07:42:59;10.10;;;2.20;;
16033;SDS011;8121;51.418;6.998;2024-02-26T07:48:01;3.37;;;2.43;;
16033;SDS011;8121;51.418;6.998;2024-02-26T07:53:04;3.30;;;2.13;;
16033;SDS011;8121;51.418;6.998;2024-02-26T07:58:05;3.00;;;1.90;;
16033;SDS011;8121;51.418;6.998;2024-02-26T08:03:07;2.00;;;1.73;;
16033;SDS011;8121;51.418;6.998;2024-02-26T08:08:09;3.30;;;2.93;;
16033;SDS011;8121;51.418;6.998;2024-02-26T08:13:11;1.60;;;1.50;;
16033;SDS011;8121;51.418;6.998;2024-02-26T08:18:13;2.23;;;2.13;;
16033;SDS011;8121;51.418;6.998;2024-02-26T08:23:15;2.00;;;1.80;;
16033;SDS011;8121;51.418;6.998;2024-02-26T08:28:17;3.73;;;2.70;;
16033;SDS011;8121;51.418;6.998;2024-02-26T08:33:19;3.50;;;3.20;;
16033;SDS011;8121;51.418;6.998;2024-02-26T08:38:22;1.93;;;1.73;;
16033;SDS011;8121;51.418;6.998;2024-02-26T08:43:24;2.50;;;2.40;;
16033;SDS011;8121;51.418;6.998;2024-02-26T08:48:25;3.00;;;2.20;;
16033;SDS011;8121;51.418;6.998;2024-02-26T08:53:28;2.13;;;2.03;;
16033;SDS011;8121;51.418;6.998;2024-02-26T08:58:29;7.80;;;2.77;;
16033;SDS011;8121;51.418;6.998;2024-02-26T09:03:31;1.67;;;1.57;;
16033;SDS011;8121;51.418;6.998;2024-02-26T09:08:34;3.30;;;2.37;;
16033;SDS011;8121;51.418;6.998;2024-02-26T09:13:36;2.90;;;2.70;;
16033;SDS011;8121;51.418;6.998;2024-02-26T09:18:38;2.00;;;1.80;;
16033;SDS011;8121;51.418;6.998;2024-02-26T09:23:41;3.17;;;2.27;;
16033;SDS011;8121;51.418;6.998;2024-02-26T09:28:42;2.60;;;2.20;;
16033;SDS011;8121;51.418;6.998;2024-02-26T09:33:44;1.73;;;1.60;;
16033;SDS011;8121;51.418;6.998;2024-02-26T09:38:47;2.17;;;1.93;;
16033;SDS011;8121;51.418;6.998;2024-02-26T09:43:48;3.43;;;3.13;;
16033;SDS011;8121;51.418;6.998;2024-02-26T09:48:52;3.17;;;2.80;;
16033;SDS011;8121;51.418;6.998;2024-02-26T09:53:55;2.20;;;2.10;;
16033;SDS011;8121;51.418;6.998;2024-02-26T09:58:57;2.50;;;2.30;;
16033;SDS011;8121;51.418;6.998;2024-02-26T10:04:00;3.83;;;3.20;;
16033;SDS011;8121;51.418;6.998;2024-02-26T10:09:04;1.73;;;1.63;;
16033;SDS011;8121;51.418;6.998;2024-02-26T10:14:09;2.67;;;2.47;;
16033;SDS011;8121;51.418;6.998;2024-02-26T10:19:15;3.00;;;2.33;;
16033;SDS011;8121;51.418;6.998;2024-02-26T10:24:29;1.90;;;1.80;;
16033;SDS011;8121;51.418;6.998;2024-02-26T10:29:31;4.23;;;1.73;;
16033;SDS011;8121;51.418;6.998;2024-02-26T10:34:33;2.93;;;2.60;;
16033;SDS011;8121;51.418;6.998;2024-02-26T10:39:39;3.40;;;3.07;;
16033;SDS011;8121;51.418;6.998;2024-02-26T10:44:47;2.43;;;2.27;;
16033;SDS011;8121;51.418;6.998;2024-02-26T10:49:49;2.90;;;2.73;;
16033;SDS011;8121;51.418;6.998;2024-02-26T10:54:54;4.40;;;3.37;;
16033;SDS011;8121;51.418;6.998;2024-02-26T10:59:57;6.90;;;3.20;;
16033;SDS011;8121;51.418;6.998;2024-02-26T11:04:59;3.90;;;3.13;;
16033;SDS011;8121;51.418;6.998;2024-02-26T11:10:03;4.33;;;3.27;;
16033;SDS011;8121;51.418;6.998;2024-02-26T11:15:05;3.03;;;2.83;;
16033;SDS011;8121;51.418;6.998;2024-02-26T11:20:09;4.50;;;3.60;;
16033;SDS011;8121;51.418;6.998;2024-02-26T11:25:14;6.20;;;3.40;;
16033;SDS011;8121;51.418;6.998;2024-02-26T11:30:17;4.97;;;3.40;;
16033;SDS011;8121;51.418;6.998;2024-02-26T11:35:19;3.70;;;2.87;;
16033;SDS011;8121;51.418;6.998;2024-02-26T11:40:23;6.73;;;3.80;;
16033;SDS011;8121;51.418;6.998;2024-02-26T11:50:50;3.10;;;2.83;;
16033;SDS011;8121;51.418;6.998;2024-02-26T12:01:43;5.33;;;3.90;;
16033;SDS011;8121;51.418;6.998;2024-02-26T12:06:50;4.13;;;3.70;;
16033;SDS011;8121;51.418;6.998;2024-02-26T12:11:53;4.87;;;4.10;;
16033;SDS011;8121;51.418;6.998;2024-02-26T12:16:57;3.73;;;3.33;;
16033;SDS011;8121;51.418;6.998;2024-02-26T12:21:59;3.33;;;3.03;;
16033;SDS011;8121;51.418;6.998;2024-02-26T12:27:02;4.80;;;3.90;;
16033;SDS011;8121;51.418;6.998;2024-02-26T12:32:04;7.50;;;4.07;;
16033;SDS011;8121;51.418;6.998;2024-02-26T12:37:06;7.23;;;4.43;;
16033;SDS011;8121;51.418;6.998;2024-02-26T12:42:10;5.37;;;4.67;;
16033;SDS011;8121;51.418;6.998;2024-02-26T12:47:12;10.00;;;4.77;;
16033;SDS011;8121;51.418;6.998;2024-02-26T12:52:16;5.77;;;4.70;;
16033;SDS011;8121;51.418;6.998;2024-02-26T12:57:19;5.50;;;4.10;;
16033;SDS011;8121;51.418;6.998;2024-02-26T13:02:21;5.77;;;4.50;;
16033;SDS011;8121;51.418;6.998;2024-02-26T13:07:22;5.63;;;3.70;;
16033;SDS011;8121;51.418;6.998;2024-02-26T13:12:25;7.23;;;4.40;;
16033;SDS011;8121;51.418;6.998;2024-02-26T13:17:27;4.30;;;3.90;;
16033;SDS011;8121;51.418;6.998;2024-02-26T13:22:29;6.03;;;4.17;;
16033;SDS011;8121;51.418;6.998;2024-02-26T13:27:34;3.53;;;3.23;;
16033;SDS011;8121;51.418;6.998;2024-02-26T13:32:37;5.83;;;4.00;;
16033;SDS011;8121;51.418;6.998;2024-02-26T13:37:40;4.00;;;3.70;;
16033;SDS011;8121;51.418;6.998;2024-02-26T13:42:43;5.57;;;3.63;;
16033;SDS011;8121;51.418;6.998;2024-02-26T13:47:45;7.90;;;4.33;;
16033;SDS011;8121;51.418;6.998;2024-02-26T13:52:46;3.13;;;2.90;;
16033;SDS011;8121;51.418;6.998;2024-02-26T13:57:54;3.93;;;3.00;;
16033;SDS011;8121;51.418;6.998;2024-02-26T14:02:57;3.30;;;3.00;;
16033;SDS011;8121;51.418;6.998;2024-02-26T14:07:59;4.80;;;3.43;;
16033;SDS011;8121;51.418;6.998;2024-02-26T14:13:02;5.27;;;3.60;;
16033;SDS011;8121;51.418;6.998;2024-02-26T14:18:03;4.90;;;2.77;;
16033;SDS011;8121;51.418;6.998;2024-02-26T14:23:05;4.07;;;3.67;;
16033;SDS011;8121;51.418;6.998;2024-02-26T14:28:09;10.23;;;3.10;;
16033;SDS011;8121;51.418;6.998;2024-02-26T14:33:11;3.53;;;3.20;;
16033;SDS011;8121;51.418;6.998;2024-02-26T14:38:13;4.20;;;2.20;;
16033;SDS011;8121;51.418;6.998;2024-02-26T14:43:16;8.50;;;3.40;;
16033;SDS011;8121;51.418;6.998;2024-02-26T14:48:18;3.20;;;3.00;;
16033;SDS011;8121;51.418;6.998;2024-02-26T14:53:19;2.93;;;2.73;;
16033;SDS011;8121;51.418;6.998;2024-02-26T14:58:22;5.50;;;3.20;;
16033;SDS011;8121;51.418;6.998;2024-02-26T15:03:24;4.70;;;2.70;;
16033;SDS011;8121;51.418;6.998;2024-02-26T15:08:26;3.83;;;2.97;;
16033;SDS011;8121;51.418;6.998;2024-02-26T15:13:28;3.93;;;2.70;;
16033;SDS011;8121;51.418;6.998;2024-02-26T15:18:30;3.23;;;2.63;;
16033;SDS011;8121;51.418;6.998;2024-02-26T15:23:31;4.90;;;3.30;;
16033;SDS011;8121;51.418;6.998;2024-02-26T15:28:36;3.43;;;2.70;;
16033;SDS011;8121;51.418;6.998;2024-02-26T15:33:38;4.27;;;2.90;;
16033;SDS011;8121;51.418;6.998;2024-02-26T15:38:39;3.00;;;2.70;;
16033;SDS011;8121;51.418;6.998;2024-02-26T15:43:42;2.37;;;2.13;;
16033;SDS011;8121;51.418;6.998;2024-02-26T15:48:44;2.50;;;2.27;;
16033;SDS011;8121;51.418;6.998;2024-02-26T15:53:45;2.80;;;2.03;;
16033;SDS011;8121;51.418;6.998;2024-02-26T15:58:49;2.23;;;2.10;;
16033;SDS011;8121;51.418;6.998;2024-02-26T16:03:51;1.87;;;1.77;;
16033;SDS011;8121;51.418;6.998;2024-02-26T16:08:53;3.43;;;2.13;;
16033;SDS011;8121;51.418;6.998;2024-02-26T16:13:58;2.60;;;2.40;;
16033;SDS011;8121;51.418;6.998;2024-02-26T16:19:05;2.73;;;2.53;;
16033;SDS011;8121;51.418;6.998;2024-02-26T16:24:08;4.90;;;2.00;;
16033;SDS011;8121;51.418;6.998;2024-02-26T16:29:11;3.10;;;2.53;;
16033;SDS011;8121;51.418;6.998;2024-02-26T16:34:12;4.83;;;2.13;;
16033;SDS011;8121;51.418;6.998;2024-02-26T16:39:14;2.00;;;1.90;;
16033;SDS011;8121;51.418;6.998;2024-02-26T16:44:18;2.77;;;1.70;;
16033;SDS011;8121;51.418;6.998;2024-02-26T16:49:20;2.60;;;2.40;;
16033;SDS011;8121;51.418;6.998;2024-02-26T16:54:21;2.70;;;2.17;;
16033;SDS011;8121;51.418;6.998;2024-02-26T16:59:24;2.20;;;2.10;;
16033;SDS011;8121;51.418;6.998;2024-02-26T17:04:28;2.23;;;2.10;;
16033;SDS011;8121;51.418;6.998;2024-02-26T17:09:29;3.70;;;2.43;;
16033;SDS011;8121;51.418;6.998;2024-02-26T17:14:32;2.50;;;2.30;;
16033;SDS011;8121;51.418;6.998;2024-02-26T17:19:33;2.40;;;2.20;;
16033;SDS011;8121;51.418;6.998;2024-02-26T17:24:35;8.43;;;2.30;;
16033;SDS011;8121;51.418;6.998;2024-02-26T17:29:38;3.00;;;2.80;;
16033;SDS011;8121;51.418;6.998;2024-02-26T17:34:40;3.80;;;3.00;;
16033;SDS011;8121;51.418;6.998;2024-02-26T17:39:42;2.77;;;2.67;;
16033;SDS011;8121;51.418;6.998;2024-02-26T17:44:44;2.70;;;2.50;;
16033;SDS011;8121;51.418;6.998;2024-02-26T17:49:46;4.73;;;3.00;;
16033;SDS011;8121;51.418;6.998;2024-02-26T17:54:47;1.97;;;1.77;;
16033;SDS011;8121;51.418;6.998;2024-02-26T17:59:50;3.47;;;2.77;;
16033;SDS011;8121;51.418;6.998;2024-02-26T18:04:52;3.03;;;2.83;;
16033;SDS011;8121;51.418;6.998;2024-02-26T18:09:54;3.73;;;3.20;;
16033;SDS011;8121;51.418;6.998;2024-02-26T18:14:58;3.47;;;2.37;;
16033;SDS011;8121;51.418;6.998;2024-02-26T18:19:59;3.10;;;2.90;;
16033;SDS011;8121;51.418;6.998;2024-02-26T18:25:04;3.10;;;2.90;;
16033;SDS011;8121;51.418;6.998;2024-02-26T18:30:08;4.20;;;3.80;;
16033;SDS011;8121;51.418;6.998;2024-02-26T18:35:10;4.87;;;3.50;;
16033;SDS011;8121;51.418;6.998;2024-02-26T18:40:11;4.40;;;3.93;;
16033;SDS011;8121;51.418;6.998;2024-02-26T18:45:14;4.20;;;3.33;;
16033;SDS011;8121;51.418;6.998;2024-02-26T18:50:16;5.17;;;4.37;;
16033;SDS011;8121;51.418;6.998;2024-02-26T18:55:17;5.60;;;5.07;;
16033;SDS011;8121;51.418;6.998;2024-02-26T19:00:20;6.23;;;5.10;;
16033;SDS011;8121;51.418;6.998;2024-02-26T19:05:22;7.30;;;5.20;;
16033;SDS011;8121;51.418;6.998;2024-02-26T19:10:25;10.40;;;5.80;;
16033;SDS011;8121;51.418;6.998;2024-02-26T19:15:29;14.63;;;5.80;;
16033;SDS011;8121;51.418;6.998;2024-02-26T19:20:32;9.77;;;5.97;;
16033;SDS011;8121;51.418;6.998;2024-02-26T19:25:34;12.77;;;6.73;;
16033;SDS011;8121;51.418;6.998;2024-02-26T19:30:37;8.73;;;6.60;;
16033;SDS011;8121;51.418;6.998;2024-02-26T19:35:39;11.60;;;7.53;;
16033;SDS011;8121;51.418;6.998;2024-02-26T19:40:40;13.20;;;6.07;;
16033;SDS011;8121;51.418;6.998;2024-02-26T19:45:43;8.90;;;6.97;;
16033;SDS011;8121;51.418;6.998;2024-02-26T19:50:45;9.77;;;7.20;;
16033;SDS011;8121;51.418;6.998;2024-02-26T19:55:47;12.00;;;6.70;;
16033;SDS011;8121;51.418;6.998;2024-02-26T20:00:50;11.60;;;7.57;;
16033;SDS011;8121;51.418;6.998;2024-02-26T20:05:51;12.90;;;7.67;;
16033;SDS011;8121;51.418;6.998;2024-02-26T20:10:53;10.50;;;6.70;;
16033;SDS011;8121;51.418;6.998;2024-02-26T20:15:56;11.37;;;6.97;;
16033;SDS011;8121;51.418;6.998;2024-02-26T20:20:57;12.37;;;7.50;;
16033;SDS011;8121;51.418;6.998;2024-02-26T20:25:59;13.40;;;6.80;;
16033;SDS011;8121;51.418;6.998;2024-02-26T20:31:03;12.50;;;7.17;;
16033;SDS011;8121;51.418;6.998;2024-02-26T20:36:05;12.77;;;7.43;;
16033;SDS011;8121;51.418;6.998;2024-02-26T20:41:07;15.60;;;8.97;;
16033;SDS011;8121;51.418;6.998;2024-02-26T20:46:10;17.40;;;9.63;;
16033;SDS011;8121;51.418;6.998;2024-02-26T20:51:11;16.70;;;8.43;;
16033;SDS011;8121;51.418;6.998;2024-02-26T20:56:13;10.80;;;7.93;;
16033;SDS011;8121;51.418;6.998;2024-02-26T21:01:16;12.87;;;8.50;;
16033;SDS011;8121;51.418;6.998;2024-02-26T21:06:17;15.00;;;8.57;;
16033;SDS011;8121;51.418;6.998;2024-02-26T21:11:19;15.87;;;8.90;;
16033;SDS011;8121;51.418;6.998;2024-02-26T21:16:22;14.77;;;9.53;;
16033;SDS011;8121;51.418;6.998;2024-02-26T21:21:24;18.20;;;10.20;;
16033;SDS011;8121;51.418;6.998;2024-02-26T21:26:28;20.67;;;10.63;;
16033;SDS011;8121;51.418;6.998;2024-02-26T21:31:33;15.63;;;10.50;;
16033;SDS011;8121;51.418;6.998;2024-02-26T21:36:34;17.43;;;10.40;;
16033;SDS011;8121;51.418;6.998;2024-02-26T21:41:36;25.90;;;11.53;;
16033;SDS011;8121;51.418;6.998;2024-02-26T21:46:39;17.80;;;9.90;;
16033;SDS011;8121;51.418;6.998;2024-02-26T21:51:44;20.80;;;11.90;;
16033;SDS011;8121;51.418;6.998;2024-02-26T21:56:47;21.07;;;10.70;;
16033;SDS011;8121;51.418;6.998;2024-02-26T22:01:50;21.80;;;12.23;;
16033;SDS011;8121;51.418;6.998;2024-02-26T22:06:51;20.77;;;10.90;;
16033;SDS011;8121;51.418;6.998;2024-02-26T22:11:53;27.53;;;11.53;;
16033;SDS011;8121;51.418;6.998;2024-02-26T22:16:56;17.13;;;10.53;;
16033;SDS011;8121;51.418;6.998;2024-02-26T22:21:57;19.97;;;11.80;;
16033;SDS011;8121;51.418;6.998;2024-02-26T22:26:59;23.30;;;13.10;;
16033;SDS011;8121;51.418;6.998;2024-02-26T22:32:02;19.80;;;13.03;;
16033;SDS011;8121;51.418;6.998;2024-02-26T22:37:04;25.70;;;13.87;;
16033;SDS011;8121;51.418;6.998;2024-02-26T22:42:06;27.33;;;14.70;;
16033;SDS011;8121;51.418;6.998;2024-02-26T22:47:09;21.53;;;12.90;;
16033;SDS011;8121;51.418;6.998;2024-02-26T22:52:14;24.00;;;14.33;;
16033;SDS011;8121;51.418;6.998;2024-02-26T22:57:16;23.27;;;13.40;;
16033;SDS011;8121;51.418;6.998;2024-02-26T23:02:20;19.50;;;13.20;;
16033;SDS011;8121;51.418;6.998;2024-02-26T23:07:22;26.33;;;15.33;;
16033;SDS011;8121;51.418;6.998;2024-02-26T23:12:24;26.83;;;15.47;;
16033;SDS011;8121;51.418;6.998;2024-02-26T23:17:27;29.13;;;14.07;;
16033;SDS011;8121;51.418;6.998;2024-02-26T23:22:29;30.17;;;14.97;;
16033;SDS011;8121;51.418;6.998;2024-02-26T23:27:31;27.07;;;14.40;;
16033;SDS011;8121;51.418;6.998;2024-02-26T23:32:34;25.73;;;14.17;;
16033;SDS011;8121;51.418;6.998;2024-02-26T23:37:37;23.30;;;12.00;;
16033;SDS011;8121;51.418;6.998;2024-02-26T23:42:38;22.73;;;14.90;;
16033;SDS011;8121;51.418;6.998;2024-02-26T23:47:41;27.13;;;15.33;;
16033;SDS011;8121;51.418;6.998;2024-02-26T23:52:43;30.60;;;14.03;;
16033;SDS011;8121;51.418;6.998;2024-02-26T23:57:45;25.50;;;13.87;;
